Sandgap, KY (40481)

10:34 PM EDT on October 31, 2014 (GMT -0400)
Southern McKee | Change Station
CLOSE
Current Station
Personal Weather Station
Location: McKee, KY
Elevation: 1138 ft
Nearby Weather Stations
Active Advisory: Freeze Watch, Special Statement

Elev 1138 ft 37.36 °N, 83.94 °W | Updated 3 seconds ago

Overcast
Overcast
36.5 °F
Feels Like 36 °F
N
0.0
Wind Variable Wind from North
Gusts 2.2 mph

Today
High -- | Low -- °F
--% Chance of Precip.
Yesterday
High -- | Low -- °F
Precip. -- in
8:00 AM 6:39 PM
First Quarter, 61% visible
Pressure 29.98 in
Visibility 7.0 miles
Clouds Overcast 1300 ft
Windchill 36 °F
Dew Point 34 °F
Humidity 90%
Rainfall 0.26 in
Snow Depth Not available.
UV 0 out of 12
Pollen .30 out of 12
Air Quality Not available.
Flu Activity Not available.
METAR KI39 010215Z AUTO 30009KT 7SM OVC013 02/01 A2998 RMK AO2

More Conditions Fewer Conditions

Pressure 29.98 in
Visibility 7.0 miles
Clouds Overcast 1300 ft
Windchill 36 °F
Dew Point 34 °F
Humidity 90%
Rainfall 0.26 in
Snow Depth Not available.
UV 0 out of 12
Pollen .30 out of 12
Air Quality Not available.
Flu Activity Not available.
METAR KI39 010215Z AUTO 30009KT 7SM OVC013 02/01 A2998 RMK AO2

More Conditions Fewer Conditions

10-Day Weather Forecast

Almanac

Astronomy

Oct. 31, 2014 Rise Set
Actual Time
Civil Twilight
Nautical Twilight
Astronomical Twilight
Moon
Length of Visible Light
Length of Day
Tomorrow will be .
, % of the Moon is Illuminated

Today's Extremes

State Highs State Lows

Community

WunderPhotos

Upload Photos

1,766,823 photos uploaded!

WunderBlogs® & News

Nearby

Air Quality

  Air Quality AQ Index Pollutant
Not available.

Snow Depth

Station Depth Elevation

Earthquake Activity

City Distance Mag. Time & Date
Minimum magnitude displayed is 2.5.

Coastal Water Temperatures

Place Temperature

Nearby Weather Stations